Eureka, Nunavut

6:23 AM CDT on September 27, 2016 (GMT -0500)
Eureka | | Change Station

Elev 33 ft 79.98 °N, 85.93 °W | Updated 23 minutes ago

Partly Cloudy
Partly Cloudy
21 °F
Feels Like 14 °F
N
6
Wind Variable Wind from NNW
Gusts 18 mph

Today
High -- | Low -- °F
--% Chance of Precip.
Yesterday
High -- | Low -- °F
Precip. -- in
Pressure 29.96 in
Visibility 15.0 miles
Clouds Few 1000 ft
Few 22000 ft
Windchill 14 °F
Dew Point 16 °F
Humidity 80%
Rainfall 0.00 in
Snow Depth Not available.
6:58 AM 6:06 PM
Waning Crescent, 12% visible
METAR CWEU 271100Z 33005G16KT 320V020 15SM FEW010 FEW220 M06/M09 A2995 RMK CF1CI1 CF TR CI TR SLP143
Pressure 29.96 in
Visibility 15.0 miles
Clouds Few 1000 ft
Few 22000 ft
Windchill 14 °F
Dew Point 16 °F
Humidity 80%
Rainfall 0.00 in
Snow Depth Not available.
6:58 AM 6:06 PM
Waning Crescent, 12% visible
METAR CWEU 271100Z 33005G16KT 320V020 15SM FEW010 FEW220 M06/M09 A2995 RMK CF1CI1 CF TR CI TR SLP143

10-Day Weather Forecast

No radar image for this location.
×

Almanac

Astronomy

Sep. 27, 2016 Rise Set
Actual Time
Civil Twilight
Nautical Twilight
Astronomical Twilight
Moon
Length of Visible Light
Length of Day
Tomorrow will be .
, % of the Moon is Illuminated

Today's Extremes

Country Highs Country Lows

Community

WunderPhotos

Upload Photos

1,942,058 photos uploaded!

WunderBlog® & News

Nearby

Air Quality

  Air Quality AQ Index Pollutant
Not available.

Snow Depth

Station Depth Elevation

Earthquake Activity

City Distance Mag. Time & Date
Minimum magnitude displayed is 2.5.

Coastal Water Temperatures

Place Temperature

Stations

Nearby Weather Stations

Station Location Temp. Windchill Dew Point Humidity Wind Precip. Elev Updated Type
                   

Watches & Warnings

There are currently no watches in effect.